Date,TemperatureHighF,TemperatureAvgF,TemperatureLowF,DewpointHighF,DewpointAvgF,DewpointLowF,HumidityHigh,HumidityAvg,HumidityLow,PressureMaxIn,PressureMinIn,WindSpeedMaxMPH,WindSpeedAvgMPH,GustSpeedMaxMPH,PrecipitationSumIn
2013-1-1,14.0,-2.1,-20.0,12.0,-5.1,-24.0,95,86,80,0.00,40.00,9,3,16,0.00
2013-1-2,23.0,19.4,14.0,21.0,18.3,12.0,97,95,92,0.00,40.00,9,4,16,0.00
2013-1-3,18.0,12.6,6.0,16.0,9.2,3.0,92,86,75,0.00,40.00,12,6,24,0.00
2013-1-4,26.0,14.8,-4.0,21.0,11.7,-8.0,93,88,73,0.00,40.00,10,4,16,0.00
2013-1-5,18.0,5.1,-10.0,18.0,3.4,-13.0,98,92,88,0.00,40.00,6,1,10,0.00
2013-1-6,21.0,13.0,-2.0,14.0,8.5,-4.0,97,83,59,0.00,40.00,12,4,19,0.00
2013-1-7,32.0,25.4,17.0,27.0,20.6,10.0,89,82,76,0.00,40.00,17,8,27,0.00
2013-1-8,31.0,26.2,14.0,28.0,22.5,14.0,98,86,72,0.00,40.00,11,4,19,0.00
2013-1-9,31.0,26.1,21.0,28.0,21.7,18.0,93,83,76,0.00,40.00,20,8,34,0.00
2013-1-10,46.0,34.7,22.0,32.0,21.3,16.0,97,60,35,0.00,40.00,21,12,30,0.00
2013-1-11,34.0,34.0,34.0,34.0,34.0,34.0,99,99,99,0.00,40.00,7,2,16,0.00
2013-1-12,30.0,10.3,1.0,30.0,6.6,-2.0,99,85,71,0.00,40.00,11,6,19,0.01
2013-1-13,5.0,-2.3,-9.0,0.0,-6.0,-11.0,88,83,72,0.00,40.00,8,2,13,0.01
2013-1-14,7.0,1.4,-3.0,1.0,-2.8,-6.0,90,82,70,0.00,40.00,8,3,14,0.00
2013-1-15,21.0,11.9,1.0,12.0,4.7,-2.0,89,73,56,0.00,40.00,12,6,21,0.00
2013-1-16,23.0,9.9,-13.0,23.0,2.2,-22.0,98,72,43,0.00,40.00,13,7,22,0.00
2013-1-17,5.0,-10.1,-23.0,-8.0,-17.4,-27.0,80,69,53,0.00,40.00,9,3,17,0.00
2013-1-18,15.0,4.9,-22.0,10.0,1.6,-26.0,92,86,80,0.00,40.00,4,2,9,0.00
2013-1-19,21.0,8.8,-7.0,21.0,5.8,-11.0,99,87,75,0.00,40.00,16,6,26,0.01
2013-1-20,0.0,-11.1,-23.0,-9.0,-15.6,-26.0,86,80,62,0.00,40.00,11,4,22,0.01
2013-1-21,-11.0,-17.3,-23.0,-18.0,-22.7,-29.0,81,75,62,0.00,40.00,11,5,20,0.00
2013-1-22,-2.0,-18.1,-34.0,-11.0,-23.4,-38.0,83,76,63,0.00,40.00,8,2,12,0.00
2013-1-23,-3.0,-12.6,-34.0,-6.0,-18.1,-38.0,87,76,58,0.00,40.00,16,5,30,0.00
2013-1-24,2.0,-18.3,-39.0,-2.0,-24.1,-44.0,84,74,59,0.00,40.00,11,3,18,0.00
2013-1-25,9.0,0.8,-22.0,3.0,-3.6,-26.0,89,81,73,0.00,40.00,11,4,17,0.00
2013-1-26,15.0,-3.2,-27.0,7.0,-8.5,-31.0,86,77,67,0.00,40.00,11,4,18,0.00
2013-1-27,31.0,17.8,0.0,23.0,10.9,-2.0,91,75,52,0.00,40.00,9,3,12,0.00
2013-1-28,33.0,29.5,26.0,30.0,27.3,23.0,99,91,83,0.00,40.00,9,3,12,0.01
2013-1-29,29.0,25.6,15.0,28.0,23.6,12.0,99,93,82,0.00,40.00,11,4,17,0.04
2013-1-30,15.0,8.4,4.0,12.0,4.8,0.0,89,84,78,0.00,40.00,12,6,20,0.01
2013-1-31,4.0,-4.0,-17.0,0.0,-10.4,-22.0,84,73,65,0.00,40.00,12,8,21,0.00
2013-2-1,0.0,-15.3,-32.0,-13.0,-22.2,-36.0,81,71,51,0.00,40.00,6,2,11,0.00
2013-2-2,7.0,-13.4,-39.0,0.0,-19.9,-44.0,84,73,57,0.00,40.00,8,2,13,0.00
2013-2-3,5.0,-4.9,-29.0,-2.0,-11.6,-35.0,86,73,52,0.00,40.00,10,4,18,0.00
2013-2-4,7.0,-10.2,-37.0,3.0,-15.8,-42.0,87,75,68,0.00,40.00,8,3,12,0.00
2013-2-5,15.0,1.5,-15.0,5.0,-4.6,-18.0,91,77,48,0.00,40.00,8,2,13,0.00
2013-2-6,20.0,9.9,-10.0,14.0,5.0,-13.0,94,81,57,0.00,40.00,6,2,9,0.00
2013-2-7,23.0,5.3,-11.0,12.0,1.2,-13.0,94,84,60,0.00,40.00,6,1,8,0.00
2013-2-8,25.0,15.0,-1.0,18.0,10.5,-4.0,93,82,65,0.00,40.00,11,4,20,0.00
2013-2-9,26.0,20.8,17.0,25.0,17.5,12.0,98,87,75,0.00,40.00,11,6,19,0.00
2013-2-10,27.0,25.5,24.0,27.0,24.9,23.0,99,98,95,0.00,40.00,12,5,24,0.03
2013-2-11,24.0,18.9,11.0,23.0,16.0,9.0,98,88,74,0.00,40.00,12,6,19,0.03
2013-2-12,31.0,19.2,5.0,23.0,15.9,3.0,96,88,68,0.00,40.00,9,4,14,0.01
2013-2-13,34.0,24.3,16.0,25.0,21.0,16.0,99,89,64,0.00,40.00,5,2,10,0.00
2013-2-14,24.0,14.4,9.0,23.0,6.2,-2.0,99,71,39,0.00,40.00,13,6,19,0.00
2013-2-15,14.0,1.8,-10.0,1.0,-3.8,-15.0,91,78,53,0.00,40.00,12,3,20,0.00
2013-2-16,18.0,-5.3,-24.0,5.0,-12.9,-27.0,88,72,44,0.00,40.00,6,1,9,0.00
2013-2-17,27.0,14.6,-17.0,21.0,9.1,-20.0,94,78,69,0.00,40.00,17,9,26,0.00
2013-2-18,27.0,18.3,0.0,23.0,14.2,-4.0,97,84,73,0.00,40.00,14,6,24,0.01
2013-2-19,5.0,-3.1,-9.0,-4.0,-8.7,-13.0,83,76,66,0.00,40.00,16,9,26,0.01
2013-2-20,12.0,-8.9,-28.0,-9.0,-19.2,-31.0,85,64,35,0.00,40.00,7,2,12,0.00
2013-2-21,26.0,-0.8,-26.0,-2.0,-14.1,-29.0,83,59,24,0.00,40.00,7,2,11,0.00
2013-2-22,28.0,18.9,-4.0,25.0,15.4,-9.0,99,86,79,0.00,40.00,7,3,12,0.00
2013-2-23,35.0,19.2,2.0,21.0,13.8,1.0,99,81,51,0.00,40.00,9,2,12,0.00
2013-2-24,44.0,15.2,-8.0,21.0,8.4,-9.0,97,78,40,0.00,40.00,6,1,11,0.00
2013-2-25,34.0,22.6,9.0,25.0,19.2,7.0,99,87,69,0.00,40.00,7,2,10,0.00
2013-2-26,49.0,20.2,-2.0,25.0,11.0,-2.0,97,74,31,0.00,40.00,6,1,11,0.00
2013-2-27,32.0,20.8,2.0,23.0,15.9,1.0,98,83,68,0.00,40.00,12,5,21,0.00
2013-2-28,27.0,21.3,16.0,21.0,12.4,7.0,82,69,53,0.00,40.00,11,6,17,0.00
2013-3-1,26.0,11.9,-12.0,7.0,-3.1,-18.0,77,53,28,0.00,40.00,7,3,12,0.00
2013-3-2,34.0,4.5,-24.0,1.0,-12.0,-27.0,85,54,21,0.00,40.00,5,1,9,0.00
2013-3-3,36.0,20.0,-3.0,12.0,5.3,-9.0,83,55,33,0.00,40.00,11,3,16,0.00
2013-3-4,33.0,22.0,8.0,19.0,10.4,-2.0,89,62,42,0.00,40.00,10,5,21,0.00
2013-3-5,24.0,20.0,16.0,18.0,15.1,9.0,99,81,54,0.00,40.00,10,6,17,0.01
2013-3-6,28.0,11.7,-9.0,16.0,6.7,-9.0,98,82,56,0.00,40.00,10,3,16,0.01
2013-3-7,34.0,14.1,-11.0,18.0,5.9,-13.0,94,72,46,0.00,40.00,9,3,14,0.00
2013-3-8,30.0,24.7,18.0,25.0,21.6,16.0,98,87,71,0.00,40.00,9,4,16,0.00
2013-3-9,34.0,30.0,26.0,34.0,29.3,25.0,99,97,91,0.00,40.00,7,2,14,0.03
2013-3-10,31.0,24.6,9.0,30.0,20.2,7.0,99,84,65,0.00,40.00,12,6,19,0.01
2013-3-11,24.0,16.2,-1.0,18.0,12.9,-2.0,97,87,71,0.00,40.00,9,3,13,0.00
2013-3-12,23.0,13.5,-4.0,18.0,6.1,-8.0,94,74,41,0.00,40.00,11,4,19,0.00
2013-3-13,37.0,6.9,-18.0,12.0,-2.8,-20.0,89,69,34,0.00,40.00,7,1,12,0.00
2013-3-14,38.0,20.6,-5.0,30.0,15.7,-8.0,97,83,66,0.00,40.00,11,4,17,0.00
2013-3-15,28.0,15.7,8.0,25.0,6.0,-6.0,88,67,39,0.00,40.00,11,6,17,0.00
2013-3-16,16.0,4.4,-15.0,5.0,-2.9,-20.0,92,73,48,0.00,40.00,16,5,24,0.00
2013-3-17,23.0,1.3,-29.0,7.0,-11.2,-33.0,83,59,37,0.00,40.00,14,5,25,0.00
2013-3-18,27.0,22.5,17.0,25.0,20.5,7.0,99,92,58,0.00,40.00,13,7,26,0.01
2013-3-19,21.0,13.2,7.0,16.0,5.7,0.0,94,74,50,0.00,40.00,18,11,29,0.01
2013-3-20,17.0,8.7,-1.0,7.0,1.0,-6.0,85,72,53,0.00,40.00,12,6,20,0.00
2013-3-21,28.0,11.6,-4.0,10.0,3.2,-8.0,89,71,46,0.00,40.00,9,2,15,0.00
2013-3-22,35.0,13.3,-9.0,21.0,6.9,-11.0,93,78,51,0.00,40.00,6,1,11,0.00
2013-3-23,34.0,15.8,-9.0,19.0,8.8,-11.0,94,75,53,0.00,40.00,9,2,11,0.00
2013-3-24,31.0,25.2,17.0,19.0,17.1,9.0,87,71,60,0.00,40.00,11,3,16,0.00
2013-3-25,37.0,17.9,-9.0,19.0,9.2,-11.0,92,71,45,0.00,40.00,14,3,19,0.00
2013-3-26,44.0,28.8,18.0,27.0,19.8,16.0,93,71,42,0.00,40.00,7,2,11,0.00
2013-3-27,46.0,31.0,17.0,25.0,18.5,14.0,93,65,31,0.00,40.00,6,1,11,0.00
2013-3-28,53.0,28.4,3.0,23.0,14.6,3.0,99,66,26,0.00,40.00,4,1,9,0.00
2013-3-29,52.0,30.4,11.0,30.0,20.8,10.0,99,73,41,0.00,40.00,9,2,17,0.00
2013-3-30,52.0,38.8,28.0,34.0,25.4,-99.9,99,67,34,0.00,40.00,12,3,18,0.00
2013-3-31,37.0,27.2,20.0,27.0,15.3,7.0,97,61,49,0.00,40.00,17,9,29,0.00
2013-4-1,33.0,21.5,8.0,12.0,8.8,5.0,88,60,36,0.00,40.00,16,8,31,0.00
2013-4-2,32.0,20.7,7.0,14.0,6.8,0.0,97,58,33,0.00,40.00,12,4,19,0.00
2013-4-3,43.0,21.8,-4.0,30.0,9.6,-6.0,96,64,37,0.00,40.00,18,7,26,0.00
2013-4-4,39.0,32.5,24.0,32.0,20.9,9.0,99,66,38,0.00,40.00,12,6,21,0.00
2013-4-5,39.0,26.8,5.0,27.0,13.0,3.0,98,60,35,0.00,40.00,11,4,18,0.00
2013-4-6,35.0,31.2,29.0,34.0,30.0,27.0,99,96,89,0.00,40.00,9,4,17,0.01
2013-4-7,44.0,35.6,31.0,32.0,28.9,25.0,99,79,49,0.00,40.00,7,3,10,0.01
2013-4-8,39.0,34.2,32.0,34.0,30.6,23.0,99,88,69,0.00,40.00,8,2,14,0.01
2013-4-9,38.0,27.6,17.0,23.0,16.2,10.0,81,63,39,0.00,40.00,12,6,17,0.00
2013-4-10,45.0,30.1,13.0,19.0,13.5,9.0,97,57,29,0.00,40.00,11,4,21,0.00
2013-4-11,33.0,28.2,25.0,27.0,15.8,9.0,93,61,37,0.00,40.00,12,7,26,0.00
2013-4-12,31.0,26.0,23.0,27.0,23.2,21.0,99,90,67,0.00,40.00,12,6,20,0.03
2013-4-13,38.0,27.1,14.0,23.0,19.2,12.0,99,75,46,0.00,40.00,7,3,15,0.01
2013-4-14,46.0,26.2,0.0,28.0,15.8,0.0,98,71,39,0.00,40.00,12,4,22,0.00
2013-4-15,40.0,33.5,29.0,36.0,31.4,28.0,99,92,74,0.00,40.00,15,6,27,0.01
2013-4-16,37.0,32.8,28.0,32.0,26.6,23.0,99,78,61,0.00,40.00,9,4,12,0.00
2013-4-17,38.0,33.1,31.0,32.0,29.6,27.0,99,86,74,0.00,40.00,7,3,15,0.00
2013-4-18,33.0,30.3,28.0,30.0,28.9,27.0,99,96,80,0.00,40.00,15,9,26,0.01
2013-4-19,32.0,25.9,9.0,28.0,14.5,3.0,99,66,31,0.00,40.00,22,11,32,0.01
2013-4-20,41.0,18.9,-6.0,14.0,4.5,-8.0,93,61,25,0.00,40.00,7,2,13,0.01
2013-4-21,37.0,29.7,19.0,34.0,19.5,12.0,99,66,53,0.00,40.00,19,9,29,0.00
2013-4-22,39.0,33.1,28.0,32.0,23.6,18.0,99,70,46,0.00,40.00,7,5,15,0.00
2013-4-23,44.0,32.9,26.0,23.0,17.4,10.0,78,55,30,0.00,40.00,10,4,16,0.00
2013-4-24,46.0,31.0,14.0,28.0,21.3,14.0,99,71,34,0.00,40.00,9,2,14,0.00
2013-4-25,45.0,35.5,29.0,30.0,24.8,16.0,99,70,36,0.00,40.00,11,5,16,0.00
2013-4-26,66.0,47.4,35.0,36.0,29.1,21.0,76,50,29,0.00,40.00,11,5,17,0.00
2013-4-27,69.0,51.6,31.0,36.0,32.0,28.0,99,53,26,0.00,40.00,12,6,22,0.00
2013-4-28,61.0,54.3,40.0,46.0,39.8,30.0,94,58,37,0.00,40.00,12,6,18,0.00
2013-4-29,64.0,46.8,25.0,36.0,28.0,25.0,99,54,25,0.00,40.00,10,3,15,0.00
2013-4-30,62.0,51.4,37.0,54.0,40.2,28.0,99,68,33,0.00,40.00,19,9,34,0.00
2013-5-1,42.0,33.2,30.0,32.0,24.6,21.0,84,70,61,0.00,40.00,18,7,29,0.00
2013-5-2,37.0,31.8,29.0,23.0,22.7,21.0,79,69,57,0.00,40.00,10,5,18,0.00
2013-5-3,44.0,33.7,20.0,32.0,22.1,19.0,99,66,42,0.00,40.00,12,5,17,0.00
2013-5-4,36.0,33.8,32.0,36.0,33.7,32.0,99,99,92,0.00,40.00,9,4,12,0.00
2013-5-5,49.0,41.5,32.0,41.0,37.8,32.0,99,87,71,0.00,40.00,7,2,9,0.00
2013-5-6,70.0,51.3,28.0,46.0,40.0,28.0,99,70,42,0.00,40.00,9,2,14,0.00
2013-5-7,77.0,60.1,31.0,48.0,42.2,30.0,99,57,31,0.00,40.00,11,3,17,0.00
2013-5-8,77.0,57.6,36.0,57.0,43.8,36.0,99,63,33,0.00,40.00,13,3,21,0.00
2013-5-9,59.0,49.2,39.0,37.0,30.2,21.0,78,50,29,0.00,40.00,16,7,23,0.00
2013-5-10,59.0,42.2,23.0,45.0,26.4,-99.9,99,63,31,0.00,40.00,13,5,22,0.00
2013-5-11,42.0,37.2,33.0,36.0,26.8,-99.9,88,68,49,0.00,40.00,17,9,32,0.00
2013-5-12,49.0,36.3,22.0,25.0,18.8,14.0,91,53,29,0.00,40.00,14,5,23,0.00
2013-5-13,61.0,43.0,21.0,41.0,28.9,21.0,99,61,33,0.00,40.00,22,8,35,0.00
2013-5-14,83.0,59.2,36.0,54.0,44.1,34.0,99,61,30,0.00,40.00,20,8,32,0.00
2013-5-15,76.0,58.9,43.0,48.0,44.6,39.0,97,63,30,0.00,40.00,18,6,36,0.00
2013-5-16,72.0,51.7,29.0,41.0,15.8,-99.9,99,51,26,0.00,40.00,9,3,14,0.00
2013-5-17,68.0,57.4,47.0,45.0,35.5,-99.9,88,52,35,0.00,40.00,12,5,20,0.00
2013-5-18,57.0,53.5,51.0,57.0,44.4,36.0,99,73,47,0.00,40.00,7,4,15,0.00
2013-5-19,56.0,54.5,53.0,55.0,53.9,52.0,99,99,97,0.00,40.00,11,6,24,0.01
2013-5-20,54.0,51.6,48.0,54.0,50.8,46.0,99,97,93,0.00,40.00,16,9,28,0.01
2013-5-21,47.0,44.8,43.0,46.0,44.0,41.0,99,96,84,0.00,40.00,12,7,24,0.00
2013-5-22,71.0,55.3,44.0,41.0,36.4,28.0,82,52,23,0.00,40.00,17,8,25,0.00
2013-5-23,60.0,48.1,34.0,34.0,28.3,25.0,92,49,28,0.00,40.00,12,5,18,0.00
2013-5-24,72.0,53.7,28.0,39.0,31.4,28.0,99,51,22,0.00,40.00,7,3,17,0.00
2013-5-25,67.0,56.4,48.0,45.0,41.0,37.0,82,58,37,0.00,40.00,12,4,19,0.00
2013-5-26,74.0,59.1,38.0,43.0,38.0,34.0,89,47,31,0.00,40.00,15,5,22,0.00
2013-5-27,74.0,58.7,37.0,46.0,40.1,30.0,88,51,37,0.00,40.00,16,6,24,0.00
2013-5-28,72.0,61.6,49.0,54.0,46.9,37.0,73,58,49,0.00,40.00,12,4,19,0.00
2013-5-29,81.0,66.2,54.0,59.0,55.0,50.0,96,69,43,0.00,40.00,11,5,24,0.00
2013-5-30,71.0,64.5,60.0,68.0,63.3,59.0,99,95,87,0.00,40.00,6,3,16,0.00
2013-5-31,77.0,67.2,59.0,64.0,58.0,50.0,99,75,40,0.00,40.00,18,6,27,0.00
2013-6-1,59.0,47.8,43.0,59.0,44.6,37.0,99,89,66,0.00,40.00,14,8,25,0.00
2013-6-2,61.0,48.3,29.0,39.0,33.6,28.0,99,62,31,0.00,40.00,12,4,21,0.00
2013-6-3,67.0,51.3,28.0,43.0,32.1,27.0,99,56,24,0.00,40.00,9,2,14,0.00
2013-6-4,66.0,54.5,39.0,46.0,35.8,28.0,99,57,27,0.00,40.00,11,3,17,0.00
2013-6-5,61.0,51.6,38.0,48.0,42.9,36.0,99,72,51,0.00,40.00,9,4,19,0.00
2013-6-6,66.0,51.1,30.0,48.0,42.4,30.0,99,75,50,0.00,40.00,9,3,15,0.00
2013-6-7,63.0,53.6,34.0,54.0,43.2,34.0,99,70,48,0.00,40.00,7,2,11,0.00
2013-6-8,75.0,56.8,34.0,52.0,41.5,34.0,99,63,31,0.00,40.00,11,4,19,0.00
2013-10-28,-200.0,0.0,200.0,-99.9,-99.9,-99.9,96,96,96,0.00,40.00,0,0,0,0.00
2013-10-30,38.0,38.0,38.0,36.0,36.0,36.0,92,90,89,0.00,40.00,0,0,1,0.00
2013-10-31,40.0,40.0,40.0,39.0,39.0,39.0,96,96,96,0.00,40.00,2,2,4,0.00
2013-11-1,37.0,37.0,37.0,36.0,36.0,36.0,96,96,96,0.00,40.00,6,6,9,0.00
2013-11-2,37.0,27.5,32.0,32.0,9.7,-99.9,99,79,82,0.00,40.00,1,0,2,0.00
2013-11-8,33.0,25.2,17.0,32.0,24.5,16.0,98,96,94,0.00,40.00,2,1,7,0.00
2013-11-9,33.0,31.6,32.0,32.0,28.6,-99.9,99,95,95,0.00,40.00,9,4,16,0.01
2013-11-10,32.0,30.1,23.0,30.0,26.6,14.0,94,87,69,0.00,40.00,11,6,21,0.01
2013-11-11,16.0,15.5,15.0,10.0,10.0,10.0,82,79,76,0.00,40.00,6,6,15,0.00
2013-11-13,40.0,35.2,34.0,32.0,30.4,30.0,85,82,71,0.00,40.00,4,2,8,0.00
2013-11-14,27.0,27.0,27.0,25.0,25.0,25.0,94,94,94,0.00,40.00,1,1,3,0.00
2013-11-16,43.0,31.0,40.0,39.0,3.0,-99.9,99,64,77,0.00,40.00,12,7,17,0.00